createdAt,value
2018-10-07T00:00:46.072Z,18.90
2018-10-07T00:03:15.722Z,16.17
2018-10-07T00:05:44.919Z,17.80
2018-10-07T00:08:14.376Z,19.90
2018-10-07T00:10:43.600Z,19.17
2018-10-07T00:13:13.412Z,18.43
2018-10-07T00:15:42.652Z,19.23
2018-10-07T00:18:11.848Z,15.57
2018-10-07T00:20:41.076Z,21.50
2018-10-07T00:23:10.327Z,14.28
2018-10-07T00:25:39.524Z,16.70
2018-10-07T00:28:08.789Z,17.17
2018-10-07T00:30:38.046Z,15.75
2018-10-07T00:33:07.439Z,16.37
2018-10-07T00:35:35.648Z,17.70
2018-10-07T00:38:04.647Z,17.50
2018-10-07T00:40:33.812Z,14.83
2018-10-07T00:43:03.002Z,16.53
2018-10-07T00:45:32.266Z,16.73
2018-10-07T00:48:01.487Z,22.13
2018-10-07T00:50:30.725Z,21.27
2018-10-07T00:52:59.936Z,20.37
2018-10-07T00:55:29.160Z,23.13
2018-10-07T00:57:58.378Z,20.92
2018-10-07T01:00:27.607Z,20.20
2018-10-07T01:02:56.934Z,21.03
2018-10-07T01:05:26.157Z,18.53
2018-10-07T01:07:55.385Z,19.57
2018-10-07T01:10:24.591Z,21.20
2018-10-07T01:12:53.788Z,18.43
2018-10-07T01:15:23.023Z,16.17
2018-10-07T01:17:52.239Z,18.70
2018-10-07T01:20:21.533Z,18.37
2018-10-07T01:22:50.814Z,14.23
2018-10-07T01:25:20.614Z,19.57
2018-10-07T01:27:49.839Z,17.63
2018-10-07T01:30:23.533Z,20.83
2018-10-07T01:32:54.521Z,18.83
2018-10-07T01:35:24.196Z,18.57
2018-10-07T01:37:53.452Z,15.98
2018-10-07T01:40:22.696Z,17.17
2018-10-07T01:42:51.887Z,15.03
2018-10-07T01:45:21.894Z,21.07
2018-10-07T01:47:51.102Z,14.73
2018-10-07T01:50:20.887Z,15.80
2018-10-07T01:52:50.128Z,18.73
2018-10-07T01:55:20.531Z,15.63
2018-10-07T01:57:49.739Z,18.92
2018-10-07T02:00:19.163Z,18.37
2018-10-07T02:02:48.371Z,16.30
2018-10-07T02:05:18.958Z,14.97
2018-10-07T02:07:48.149Z,22.10
2018-10-07T02:10:18.083Z,15.53
2018-10-07T02:12:47.282Z,19.43
2018-10-07T02:15:17.906Z,16.15
2018-10-07T02:17:47.097Z,16.60
2018-10-07T02:20:17.641Z,18.23
2018-10-07T02:22:46.886Z,21.23
2018-10-07T02:25:17.098Z,17.47
2018-10-07T02:27:46.297Z,23.15
2018-10-07T02:30:16.104Z,19.53
2018-10-07T02:32:45.344Z,22.47
2018-10-07T02:35:15.770Z,20.80
2018-10-07T02:37:44.991Z,17.32
2018-10-07T02:40:14.337Z,23.35
2018-10-07T02:42:43.575Z,21.13
2018-10-07T02:45:13.607Z,22.60
2018-10-07T02:47:42.780Z,26.43
2018-10-07T02:50:22.101Z,20.52
2018-10-07T02:52:54.104Z,27.47
2018-10-07T02:55:25.091Z,21.03
2018-10-07T02:57:55.443Z,26.30
2018-10-07T03:00:24.688Z,17.85
2018-10-07T03:02:53.989Z,27.00
2018-10-07T03:05:23.277Z,26.37
2018-10-07T03:07:52.468Z,19.87
2018-10-07T03:10:21.699Z,21.33
2018-10-07T03:12:50.912Z,22.22
2018-10-07T03:15:20.830Z,22.00
2018-10-07T03:17:49.987Z,21.53
2018-10-07T03:20:20.580Z,21.40
2018-10-07T03:22:49.944Z,20.90
2018-10-07T03:25:20.131Z,21.17
2018-10-07T03:27:49.316Z,24.80
2018-10-07T03:30:19.608Z,29.33
2018-10-07T03:32:48.826Z,27.03
2018-10-07T03:35:18.837Z,21.57
2018-10-07T03:37:48.019Z,19.03
2018-10-07T03:40:18.436Z,18.60
2018-10-07T03:42:47.674Z,22.00
2018-10-07T03:45:17.573Z,18.97
2018-10-07T03:47:46.754Z,19.83
2018-10-07T03:50:15.969Z,19.33
2018-10-07T03:52:45.156Z,15.80
2018-10-07T03:55:15.796Z,16.93
2018-10-07T03:57:45.026Z,16.87
2018-10-07T04:00:15.209Z,20.87
2018-10-07T04:02:44.417Z,19.00
2018-10-07T04:05:13.771Z,18.53
2018-10-07T04:07:42.979Z,17.23
2018-10-07T04:10:12.171Z,20.02
2018-10-07T04:12:41.361Z,21.10
2018-10-07T04:15:10.620Z,18.30
2018-10-07T04:17:39.807Z,25.20
2018-10-07T04:20:09.048Z,20.47
2018-10-07T04:22:38.253Z,18.80
2018-10-07T04:25:07.564Z,19.42
2018-10-07T04:27:36.831Z,16.93
2018-10-07T04:30:06.104Z,22.52
2018-10-07T04:32:35.312Z,22.87
2018-10-07T04:35:04.516Z,18.82
2018-10-07T04:37:33.753Z,20.20
2018-10-07T04:40:03.106Z,21.77
2018-10-07T04:42:32.158Z,19.40
2018-10-07T04:45:01.348Z,19.63
2018-10-07T04:47:30.527Z,23.23
2018-10-07T04:49:59.712Z,21.70
2018-10-07T04:52:28.895Z,23.87
2018-10-07T04:54:58.098Z,20.93
2018-10-07T04:57:27.273Z,25.03
2018-10-07T04:59:56.489Z,18.60
2018-10-07T05:02:25.912Z,16.17
2018-10-07T05:04:55.167Z,18.17
2018-10-07T05:07:24.391Z,17.23
2018-10-07T05:10:04.860Z,16.70
2018-10-07T05:12:34.118Z,19.43
2018-10-07T05:15:03.404Z,18.90
2018-10-07T05:17:32.667Z,21.60
2018-10-07T05:20:01.949Z,23.30
2018-10-07T05:22:31.149Z,17.80
2018-10-07T05:25:00.339Z,17.03
2018-10-07T05:27:29.533Z,17.37
2018-10-07T05:29:58.780Z,22.07
2018-10-07T05:32:27.995Z,26.03
2018-10-07T05:34:57.192Z,16.23
2018-10-07T05:37:26.379Z,18.80
2018-10-07T05:39:55.577Z,17.67
2018-10-07T05:42:24.791Z,20.17
2018-10-07T05:44:54.041Z,20.83
2018-10-07T05:47:23.173Z,18.97
2018-10-07T05:49:52.910Z,21.53
2018-10-07T05:52:22.168Z,18.40
2018-10-07T05:54:51.419Z,17.70
2018-10-07T05:57:20.666Z,20.00
2018-10-07T05:59:49.920Z,18.00
2018-10-07T06:02:19.243Z,18.63
2018-10-07T06:04:52.069Z,21.90
2018-10-07T06:07:21.545Z,20.53
2018-10-07T06:09:50.804Z,14.63
2018-10-07T06:12:20.004Z,14.97
2018-10-07T06:15:00.355Z,13.87
2018-10-07T06:17:29.600Z,16.77
2018-10-07T06:19:58.843Z,18.63
2018-10-07T06:22:28.098Z,18.15
2018-10-07T06:24:57.343Z,15.72
2018-10-07T06:27:27.523Z,14.80
2018-10-07T06:29:56.847Z,18.47
2018-10-07T06:32:25.934Z,13.70
2018-10-07T06:34:55.155Z,14.58
2018-10-07T06:37:24.434Z,18.63
2018-10-07T06:39:53.792Z,16.40
2018-10-07T06:42:22.950Z,22.02
2018-10-07T06:44:52.137Z,20.83
2018-10-07T06:47:21.384Z,18.63
2018-10-07T06:49:50.575Z,20.88
2018-10-07T06:52:19.842Z,24.07
2018-10-07T06:54:49.035Z,35.30
2018-10-07T06:57:18.276Z,25.10
2018-10-07T06:59:47.477Z,25.70
2018-10-07T07:02:16.674Z,26.68
2018-10-07T07:04:45.851Z,27.40
2018-10-07T07:07:15.136Z,25.07
2018-10-07T07:09:44.351Z,35.87
2018-10-07T07:12:13.551Z,34.50
2018-10-07T07:14:42.724Z,34.18
2018-10-07T07:17:12.159Z,31.20
2018-10-07T07:19:41.396Z,35.90
2018-10-07T07:22:11.127Z,33.60
2018-10-07T07:24:40.307Z,33.50
2018-10-07T07:27:10.659Z,37.80
2018-10-07T07:29:39.844Z,39.33
2018-10-07T07:32:10.146Z,39.27
2018-10-07T07:34:39.365Z,36.67
2018-10-07T07:37:09.234Z,34.77
2018-10-07T07:39:38.441Z,41.43
2018-10-07T07:42:07.963Z,34.80
2018-10-07T07:44:37.161Z,42.63
2018-10-07T07:47:06.511Z,38.60
2018-10-07T07:49:35.725Z,42.17
2018-10-07T07:52:30.783Z,41.03
2018-10-07T07:55:00.007Z,44.38
2018-10-07T07:57:29.352Z,43.73
2018-10-07T07:59:58.571Z,36.80
2018-10-07T08:02:27.918Z,38.43
2018-10-07T08:04:57.139Z,39.98
2018-10-07T08:07:26.362Z,38.17
2018-10-07T08:09:55.664Z,40.10
2018-10-07T08:12:25.069Z,41.33
2018-10-07T08:14:57.236Z,42.27
2018-10-07T08:17:26.747Z,37.87
2018-10-07T08:19:55.944Z,54.10
2018-10-07T08:22:25.291Z,44.27
2018-10-07T08:24:54.492Z,49.73
2018-10-07T08:27:23.703Z,49.53
2018-10-07T08:29:52.888Z,49.43
2018-10-07T08:32:22.232Z,49.40
2018-10-07T08:34:51.429Z,52.93
2018-10-07T08:37:20.651Z,54.00
2018-10-07T08:39:49.831Z,48.73
2018-10-07T08:42:19.083Z,49.80
2018-10-07T08:44:48.343Z,49.67
2018-10-07T08:47:17.660Z,53.10
2018-10-07T08:49:46.949Z,54.90
2018-10-07T08:52:16.139Z,50.40
2018-10-07T08:54:45.336Z,49.13
2018-10-07T08:57:14.535Z,49.23
2018-10-07T08:59:43.737Z,56.07
2018-10-07T09:02:13.025Z,50.57
2018-10-07T09:04:42.179Z,57.40
2018-10-07T09:07:11.813Z,51.00
2018-10-07T09:09:41.009Z,63.00
2018-10-07T09:12:10.704Z,52.63
2018-10-07T09:14:39.914Z,59.47
2018-10-07T09:17:09.370Z,58.00
2018-10-07T09:19:38.593Z,48.47
2018-10-07T09:22:08.142Z,55.53
2018-10-07T09:24:37.308Z,54.13
2018-10-07T09:27:06.752Z,54.50
2018-10-07T09:29:36.042Z,49.60
2018-10-07T09:32:05.303Z,50.97
2018-10-07T09:34:34.495Z,45.63
2018-10-07T09:37:03.881Z,55.57
2018-10-07T09:39:33.113Z,54.90
2018-10-07T09:42:02.318Z,51.50
2018-10-07T09:44:31.539Z,60.43
2018-10-07T09:47:00.829Z,61.40
2018-10-07T09:49:30.094Z,57.83
2018-10-07T09:51:59.338Z,67.37
2018-10-07T09:54:28.532Z,61.30
2018-10-07T09:56:57.783Z,58.50
2018-10-07T09:59:27.042Z,55.13
2018-10-07T10:01:57.555Z,56.58
2018-10-07T10:04:27.983Z,56.10
2018-10-07T10:06:59.191Z,60.67
2018-10-07T10:09:29.583Z,54.83
2018-10-07T10:11:59.880Z,51.53
2018-10-07T10:14:29.923Z,50.50
2018-10-07T10:17:07.623Z,48.17
2018-10-07T10:20:00.867Z,43.33
2018-10-07T10:22:37.401Z,40.80
2018-10-07T10:25:20.463Z,44.40
2018-10-07T10:27:58.613Z,40.30
2018-10-07T10:30:30.855Z,43.50
2018-10-07T10:33:16.146Z,45.77
2018-10-07T10:38:01.399Z,51.40
2018-10-07T10:40:33.194Z,58.10
2018-10-07T10:43:06.948Z,68.73
2018-10-07T10:45:39.901Z,53.97
2018-10-07T10:48:20.309Z,54.33
2018-10-07T10:50:53.795Z,58.43
2018-10-07T10:53:57.710Z,54.70
2018-10-07T10:56:29.870Z,48.33
2018-10-07T10:59:10.804Z,50.23
2018-10-07T11:01:50.100Z,45.03
2018-10-07T11:04:23.088Z,43.53
2018-10-07T11:06:59.999Z,38.13
2018-10-07T11:10:39.139Z,32.10
2018-10-07T11:13:32.362Z,37.87
2018-10-07T11:16:11.013Z,30.20
2018-10-07T11:20:49.540Z,29.27
2018-10-07T11:24:30.683Z,27.83
2018-10-07T11:27:25.214Z,23.70
2018-10-07T11:30:02.211Z,22.50
2018-10-07T11:33:19.811Z,27.40
2018-10-07T11:36:00.251Z,19.40
2018-10-07T11:38:38.749Z,15.03
2018-10-07T11:43:28.989Z,21.17
2018-10-07T11:46:07.526Z,15.88
2018-10-07T11:49:10.069Z,12.43
2018-10-07T11:51:56.307Z,11.30
2018-10-07T11:54:42.697Z,19.70
2018-10-07T11:57:12.087Z,10.90
2018-10-07T11:59:41.350Z,12.53
2018-10-07T12:02:10.821Z,15.80
2018-10-07T12:04:39.947Z,19.70
2018-10-07T12:07:09.479Z,16.00
2018-10-07T12:09:38.675Z,17.60
2018-10-07T12:12:08.315Z,14.40
2018-10-07T12:14:37.455Z,17.17
2018-10-07T12:17:06.967Z,14.90
2018-10-07T12:19:36.161Z,10.47
2018-10-07T12:22:08.690Z,9.17
2018-10-07T12:24:38.567Z,8.00
2018-10-07T12:27:09.180Z,13.73
2018-10-07T12:29:38.329Z,7.60
2018-10-07T12:32:08.619Z,11.35
2018-10-07T12:34:37.796Z,13.93
2018-10-07T12:42:31.264Z,9.40
2018-10-07T12:45:00.374Z,10.37
2018-10-07T12:47:29.585Z,13.00
2018-10-07T12:49:58.783Z,10.13
2018-10-07T12:52:28.042Z,10.23
2018-10-07T12:54:57.213Z,11.07
2018-10-07T12:57:26.366Z,8.83
2018-10-07T12:59:55.540Z,9.90
2018-10-07T13:02:24.721Z,7.90
2018-10-07T13:04:54.280Z,6.90
2018-10-07T13:07:23.761Z,8.50
2018-10-07T13:09:52.983Z,12.87
2018-10-07T13:12:22.207Z,12.03
2018-10-07T13:14:51.411Z,15.47
2018-10-07T13:17:20.607Z,12.53
2018-10-07T13:19:49.783Z,13.40
2018-10-07T13:22:18.967Z,14.37
2018-10-07T13:24:48.156Z,18.07
2018-10-07T13:27:17.348Z,18.73
2018-10-07T13:29:46.539Z,20.30
2018-10-07T13:32:15.899Z,19.50
2018-10-07T13:34:45.118Z,25.73
2018-10-07T13:37:14.291Z,19.60
2018-10-07T13:39:43.522Z,18.40
2018-10-07T13:42:12.660Z,18.67
2018-10-07T13:44:41.872Z,20.43
2018-10-07T13:47:11.113Z,18.47
2018-10-07T13:49:40.524Z,26.42
2018-10-07T13:52:10.119Z,18.80
2018-10-07T13:54:39.319Z,20.23
2018-10-07T13:57:08.760Z,18.30
2018-10-07T13:59:37.930Z,22.27
2018-10-07T14:02:07.163Z,17.20
2018-10-07T14:04:36.428Z,19.17
2018-10-07T14:07:05.600Z,21.93
2018-10-07T14:09:34.813Z,18.03
2018-10-07T14:12:04.031Z,18.93
2018-10-07T14:14:33.231Z,24.77
2018-10-07T14:17:02.428Z,18.70
2018-10-07T14:19:31.609Z,20.43
2018-10-07T14:22:00.905Z,16.50
2018-10-07T14:24:30.077Z,19.97
2018-10-07T14:26:59.246Z,16.17
2018-10-07T14:29:28.411Z,16.37
2018-10-07T14:31:57.605Z,15.43
2018-10-07T14:34:26.795Z,14.60
2018-10-07T14:36:55.948Z,12.25
2018-10-07T14:39:25.200Z,13.20
2018-10-07T14:41:54.394Z,13.23
2018-10-07T14:44:23.564Z,13.35
2018-10-07T14:46:52.766Z,14.07
2018-10-07T14:49:22.053Z,10.00
2018-10-07T14:51:51.218Z,12.60
2018-10-07T14:54:20.369Z,12.50
2018-10-07T14:56:49.591Z,10.47
2018-10-07T14:59:18.779Z,13.60
2018-10-07T15:01:48.006Z,11.08
2018-10-07T15:04:17.163Z,12.53
2018-10-07T15:06:46.430Z,10.10
2018-10-07T15:09:15.668Z,9.27
2018-10-07T15:11:44.857Z,7.27
2018-10-07T15:14:14.053Z,8.20
2018-10-07T15:16:43.219Z,6.47
2018-10-07T15:19:12.535Z,5.80
2018-10-07T15:21:41.872Z,5.53
2018-10-07T15:24:11.163Z,5.33
2018-10-07T15:26:40.404Z,7.87
2018-10-07T15:29:09.917Z,5.97
2018-10-07T15:31:39.129Z,4.70
2018-10-07T15:34:08.966Z,6.70
2018-10-07T15:36:38.183Z,5.00
2018-10-07T15:39:08.179Z,8.35
2018-10-07T15:41:37.439Z,4.53
2018-10-07T15:44:06.830Z,6.00
2018-10-07T15:46:36.506Z,5.67
2018-10-07T15:49:05.742Z,5.47
2018-10-07T15:51:35.653Z,5.27
2018-10-07T15:54:04.995Z,6.10
2018-10-07T15:56:34.310Z,6.00
2018-10-07T15:59:03.504Z,5.10
2018-10-07T16:01:33.235Z,8.10
2018-10-07T16:04:02.504Z,9.43
2018-10-07T16:06:31.650Z,5.40
2018-10-07T16:09:00.844Z,4.50
2018-10-07T16:11:30.001Z,6.70
2018-10-07T16:13:59.216Z,5.40
2018-10-07T16:16:28.404Z,4.50
2018-10-07T16:18:57.603Z,3.27
2018-10-07T16:21:26.936Z,4.80
2018-10-07T16:23:56.293Z,7.60
2018-10-07T16:26:25.561Z,4.70
2018-10-07T16:28:54.623Z,7.60
2018-10-07T16:31:23.864Z,6.10
2018-10-07T16:33:53.074Z,3.70
2018-10-07T16:36:22.271Z,3.90
2018-10-07T16:38:51.474Z,3.47
2018-10-07T16:41:20.704Z,5.93
2018-10-07T16:43:49.887Z,3.33
2018-10-07T16:46:19.136Z,5.63
2018-10-07T16:48:48.297Z,3.60
2018-10-07T16:51:17.926Z,6.00
2018-10-07T16:53:47.178Z,3.90
2018-10-07T16:56:17.415Z,3.30
2018-10-07T16:58:46.591Z,3.60
2018-10-07T17:01:16.212Z,3.10
2018-10-07T17:03:45.407Z,4.70
2018-10-07T17:06:15.624Z,3.62
2018-10-07T17:08:44.839Z,4.20
2018-10-07T17:11:14.045Z,4.07
2018-10-07T17:13:43.286Z,3.33
2018-10-07T17:16:12.467Z,3.93
2018-10-07T17:18:41.640Z,2.77
2018-10-07T17:21:11.254Z,3.27
2018-10-07T17:23:40.452Z,4.13
2018-10-07T17:26:09.640Z,3.67
2018-10-07T17:28:38.947Z,3.87
2018-10-07T17:31:08.128Z,5.40
2018-10-07T17:33:37.317Z,4.97
2018-10-07T17:36:06.525Z,2.97
2018-10-07T17:38:35.840Z,3.53
2018-10-07T17:41:05.062Z,3.07
2018-10-07T17:43:34.309Z,3.20
2018-10-07T17:46:03.521Z,3.87
2018-10-07T17:48:32.776Z,3.93
2018-10-07T17:51:01.965Z,3.40
2018-10-07T17:53:31.241Z,14.68
2018-10-07T17:56:00.444Z,3.58
2018-10-07T17:58:29.663Z,5.13
2018-10-07T18:00:58.883Z,4.20
2018-10-07T18:03:28.494Z,5.70
2018-10-07T18:05:57.872Z,6.10
2018-10-07T18:08:27.161Z,7.60
2018-10-07T18:10:56.655Z,7.30
2018-10-07T18:13:26.812Z,4.73
2018-10-07T18:15:56.118Z,6.60
2018-10-07T18:18:26.058Z,5.42
2018-10-07T18:20:55.493Z,8.43
2018-10-07T18:23:24.764Z,9.03
2018-10-07T18:25:54.054Z,8.20
2018-10-07T18:28:23.231Z,5.80
2018-10-07T18:30:52.611Z,6.13
2018-10-07T18:33:21.864Z,5.80
2018-10-07T18:35:51.152Z,8.20
2018-10-07T18:38:20.622Z,7.23
2018-10-07T18:40:49.924Z,8.50
2018-10-07T18:43:19.458Z,8.03
2018-10-07T18:45:48.791Z,6.70
2018-10-07T18:48:17.964Z,7.93
2018-10-07T18:50:47.184Z,8.13
2018-10-07T18:53:16.545Z,8.95
2018-10-07T18:55:45.716Z,8.27
2018-10-07T18:58:15.493Z,8.85
2018-10-07T19:00:44.720Z,8.37
2018-10-07T19:03:14.423Z,7.87
2018-10-07T19:05:43.639Z,9.20
2018-10-07T19:08:13.130Z,6.43
2018-10-07T19:10:42.360Z,10.43
2018-10-07T19:13:11.740Z,11.27
2018-10-07T19:15:41.119Z,7.95
2018-10-07T19:18:10.252Z,6.20
2018-10-07T19:20:39.514Z,7.53
2018-10-07T19:23:08.692Z,5.47
2018-10-07T19:25:38.121Z,8.95
2018-10-07T19:28:07.466Z,7.80
2018-10-07T19:30:36.688Z,6.87
2018-10-07T19:33:05.933Z,7.50
2018-10-07T19:35:35.156Z,7.10
2018-10-07T19:38:04.280Z,9.57
2018-10-07T19:40:33.632Z,6.65
2018-10-07T19:43:02.845Z,6.23
2018-10-07T19:45:32.053Z,6.33
2018-10-07T19:48:01.225Z,5.80
2018-10-07T19:50:30.499Z,11.20
2018-10-07T19:52:59.758Z,8.10
2018-10-07T19:55:28.931Z,8.20
2018-10-07T19:57:58.158Z,5.90
2018-10-07T20:00:27.391Z,6.10
2018-10-07T20:02:56.574Z,7.23
2018-10-07T20:05:25.748Z,7.23
2018-10-07T20:07:54.957Z,8.07
2018-10-07T20:10:24.183Z,8.90
2018-10-07T20:12:53.402Z,8.70
2018-10-07T20:15:22.555Z,6.73
2018-10-07T20:17:51.731Z,8.03
2018-10-07T20:20:20.981Z,8.53
2018-10-07T20:22:50.247Z,8.67
2018-10-07T20:25:21.563Z,8.63
2018-10-07T20:27:50.747Z,7.87
2018-10-07T20:30:20.361Z,7.97
2018-10-07T20:32:50.539Z,10.35
2018-10-07T20:35:19.856Z,9.77
2018-10-07T20:37:49.015Z,7.73
2018-10-07T20:40:19.050Z,7.60
2018-10-07T20:42:48.212Z,10.37
2018-10-07T20:45:18.025Z,13.20
2018-10-07T20:47:47.184Z,9.37
2018-10-07T20:50:17.312Z,7.40
2018-10-07T20:52:46.535Z,7.30
2018-10-07T20:55:17.035Z,11.13
2018-10-07T20:57:46.212Z,7.97
2018-10-07T21:00:16.680Z,9.13
2018-10-07T21:02:45.956Z,9.27
2018-10-07T21:05:16.118Z,7.60
2018-10-07T21:07:45.282Z,8.33
2018-10-07T21:10:15.677Z,7.73
2018-10-07T21:12:47.732Z,8.80
2018-10-07T21:15:17.429Z,10.70
2018-10-07T21:17:46.689Z,8.37
2018-10-07T21:20:16.941Z,11.27
2018-10-07T21:22:46.189Z,10.63
2018-10-07T21:25:16.025Z,10.60
2018-10-07T21:27:45.193Z,9.70
2018-10-07T21:30:14.950Z,9.50
2018-10-07T21:32:44.127Z,11.77
2018-10-07T21:35:13.840Z,9.20
2018-10-07T21:37:42.997Z,10.35
2018-10-07T21:40:12.187Z,11.30
2018-10-07T21:42:42.154Z,7.78
2018-10-07T21:45:11.601Z,16.17
2018-10-07T21:47:40.774Z,10.38
2018-10-07T21:50:09.951Z,9.30
2018-10-07T21:52:39.172Z,15.85
2018-10-07T21:55:08.351Z,10.00
2018-10-07T21:57:38.364Z,9.10
2018-10-07T22:00:09.161Z,10.82
2018-10-07T22:02:39.224Z,11.45
2018-10-07T22:05:08.368Z,8.87
2018-10-07T22:07:37.564Z,10.65
2018-10-07T22:10:06.778Z,9.00
2018-10-07T22:12:36.297Z,9.73
2018-10-07T22:15:05.484Z,9.37
2018-10-07T22:17:34.727Z,9.15
2018-10-07T22:20:04.033Z,8.75
2018-10-07T22:22:33.179Z,12.20
2018-10-07T22:25:02.478Z,11.13
2018-10-07T22:27:31.637Z,12.68
2018-10-07T22:30:00.820Z,9.40
2018-10-07T22:32:30.038Z,8.93
2018-10-07T22:34:59.245Z,9.40
2018-10-07T22:37:28.406Z,12.10
2018-10-07T22:39:57.824Z,12.80
2018-10-07T22:42:26.987Z,8.83
2018-10-07T22:44:56.219Z,9.50
2018-10-07T22:47:25.371Z,8.83
2018-10-07T22:49:54.558Z,8.97
2018-10-07T22:52:23.755Z,13.60
2018-10-07T22:54:52.923Z,9.40
2018-10-07T22:57:22.094Z,12.43
2018-10-07T22:59:51.572Z,9.88
2018-10-07T23:02:21.614Z,10.87
2018-10-07T23:04:50.787Z,8.17
2018-10-07T23:07:19.964Z,8.23
2018-10-07T23:09:49.130Z,11.40
2018-10-07T23:12:18.336Z,10.30
2018-10-07T23:14:47.515Z,13.15
2018-10-07T23:17:16.811Z,10.20
2018-10-07T23:19:45.976Z,11.30
2018-10-07T23:22:15.872Z,10.40
2018-10-07T23:24:45.052Z,11.07
2018-10-07T23:27:14.683Z,14.20
2018-10-07T23:29:43.850Z,9.07
2018-10-07T23:32:13.299Z,12.57
2018-10-07T23:34:42.463Z,14.40
2018-10-07T23:37:11.649Z,10.18
2018-10-07T23:39:40.863Z,13.70
2018-10-07T23:42:10.132Z,15.17
2018-10-07T23:44:39.263Z,8.67
2018-10-07T23:47:08.519Z,11.47
2018-10-07T23:49:40.710Z,8.23
2018-10-07T23:52:09.950Z,10.03
2018-10-07T23:54:39.079Z,9.75
2018-10-07T23:57:08.250Z,12.20
2018-10-07T23:59:37.432Z,11.13
